createdAt,value
2017-05-23T00:00:14.212Z,73.22
2017-05-23T00:00:54.620Z,73.32
2017-05-23T00:01:35.030Z,73.41
2017-05-23T00:02:15.455Z,73.41
2017-05-23T00:02:55.876Z,73.41
2017-05-23T00:03:36.319Z,73.41
2017-05-23T00:04:16.712Z,73.22
2017-05-23T00:04:57.155Z,73.32
2017-05-23T00:05:37.567Z,73.41
2017-05-23T00:06:18.013Z,73.32
2017-05-23T00:06:58.412Z,73.32
2017-05-23T00:07:38.828Z,73.32
2017-05-23T00:08:19.219Z,73.32
2017-05-23T00:08:59.651Z,73.32
2017-05-23T00:09:40.075Z,73.32
2017-05-23T00:10:20.469Z,73.03
2017-05-23T00:11:00.938Z,73.03
2017-05-23T00:11:41.270Z,73.6
2017-05-23T00:12:21.700Z,73.32
2017-05-23T00:13:02.103Z,73.32
2017-05-23T00:13:42.558Z,73.32
2017-05-23T00:14:22.974Z,73.25
2017-05-23T00:15:03.422Z,73.41
2017-05-23T00:15:43.771Z,73.22
2017-05-23T00:16:24.165Z,73.41
2017-05-23T00:17:04.607Z,73.32
2017-05-23T00:17:44.986Z,73.41
2017-05-23T00:18:25.417Z,73.32
2017-05-23T00:19:05.820Z,73.32
2017-05-23T00:19:46.264Z,73.32
2017-05-23T00:20:26.686Z,73.22
2017-05-23T00:21:07.078Z,73.22
2017-05-23T00:21:47.524Z,73.79
2017-05-23T00:22:27.911Z,73.69
2017-05-23T00:23:08.351Z,73.69
2017-05-23T00:25:26.327Z,73.35
2017-05-23T00:26:06.731Z,73.35
2017-05-23T00:26:47.148Z,74.11
2017-05-23T00:27:27.573Z,73.73
2017-05-23T00:28:07.945Z,73.54
2017-05-23T00:28:48.391Z,73.6
2017-05-23T00:29:28.783Z,73.41
2017-05-23T00:30:09.228Z,73.44
2017-05-23T00:30:49.622Z,73.54
2017-05-23T00:31:30.024Z,73.5
2017-05-23T00:32:10.454Z,73.5
2017-05-23T00:32:50.808Z,73.41
2017-05-23T00:33:31.249Z,73.98
2017-05-23T00:34:11.612Z,74.17
2017-05-23T00:34:52.049Z,73.98
2017-05-23T00:35:32.485Z,73.98
2017-05-23T00:36:12.883Z,74.65
2017-05-23T00:36:54.000Z,74.55
2017-05-23T00:37:34.379Z,74.27
2017-05-23T00:38:15.417Z,73.88
2017-05-23T00:38:55.819Z,74.17
2017-05-23T00:39:36.225Z,74.37
2017-05-23T00:40:16.669Z,74.37
2017-05-23T00:40:57.149Z,74.27
2017-05-23T00:41:37.507Z,74.65
2017-05-23T00:42:17.951Z,74.55
2017-05-23T00:42:58.317Z,74.46
2017-05-23T00:43:38.728Z,75.22
2017-05-23T00:44:19.160Z,74.46
2017-05-23T00:44:59.559Z,74.65
2017-05-23T00:45:39.955Z,74.55
2017-05-23T00:46:20.351Z,74.84
2017-05-23T00:47:01.417Z,75.13
2017-05-23T00:47:41.854Z,75.13
2017-05-23T00:48:22.282Z,75.22
2017-05-23T00:49:02.663Z,75.03
2017-05-23T00:49:43.093Z,74.37
2017-05-23T00:50:23.493Z,75.51
2017-05-23T00:51:03.872Z,74.74
2017-05-23T00:51:44.320Z,75.22
2017-05-23T00:52:24.718Z,74.84
2017-05-23T00:53:05.135Z,75.03
2017-05-23T00:53:45.572Z,74.93
2017-05-23T00:54:26.010Z,74.93
2017-05-23T00:55:06.376Z,74.84
2017-05-23T00:55:46.789Z,74.84
2017-05-23T00:56:27.264Z,74.74
2017-05-23T00:57:07.647Z,74.55
2017-05-23T00:57:48.043Z,74.84
2017-05-23T00:58:29.171Z,74.74
2017-05-23T00:59:09.622Z,75.32
2017-05-23T00:59:49.984Z,75.22
2017-05-23T01:00:31.089Z,75.03
2017-05-23T01:01:11.482Z,74.84
2017-05-23T01:01:51.901Z,74.93
2017-05-23T01:02:33.218Z,74.65
2017-05-23T01:03:13.558Z,74.84
2017-05-23T01:03:53.983Z,75.03
2017-05-23T01:04:34.419Z,75.03
2017-05-23T01:05:14.848Z,74.74
2017-05-23T01:05:55.264Z,75.03
2017-05-23T01:06:35.692Z,74.74
2017-05-23T01:07:16.131Z,74.65
2017-05-23T01:07:56.548Z,74.93
2017-05-23T01:08:37.518Z,74.55
2017-05-23T01:09:17.907Z,74.74
2017-05-23T01:09:58.320Z,74.84
2017-05-23T01:10:38.796Z,74.74
2017-05-23T01:11:19.243Z,75.03
2017-05-23T01:11:59.741Z,75.13
2017-05-23T01:12:40.127Z,75.13
2017-05-23T01:13:20.555Z,75.47
2017-05-23T01:14:00.935Z,75.32
2017-05-23T01:14:41.991Z,75.51
2017-05-23T01:15:23.163Z,75.32
2017-05-23T01:16:05.338Z,75.37
2017-05-23T01:16:46.650Z,75.51
2017-05-23T01:20:06.587Z,75.22
2017-05-23T01:20:50.611Z,75.22
2017-05-23T01:21:30.989Z,75.13
2017-05-23T01:22:12.117Z,75.66
2017-05-23T01:22:52.491Z,75.22
2017-05-23T01:23:32.912Z,75.22
2017-05-23T01:24:13.330Z,75.22
2017-05-23T01:24:54.699Z,75.13
2017-05-23T01:25:36.126Z,75.7
2017-05-23T01:26:17.272Z,75.32
2017-05-23T01:27:00.181Z,75.7
2017-05-23T01:27:40.608Z,75.89
2017-05-23T01:28:21.794Z,75.89
2017-05-23T01:29:02.217Z,75.98
2017-05-23T01:29:44.027Z,75.98
2017-05-23T01:30:24.491Z,75.98
2017-05-23T01:31:04.894Z,75.98
2017-05-23T01:31:46.774Z,75.98
2017-05-23T01:32:27.215Z,75.7
2017-05-23T01:33:08.366Z,75.13
2017-05-23T01:33:49.524Z,75.22
2017-05-23T01:34:31.521Z,75.13
2017-05-23T01:35:11.932Z,75.6
2017-05-23T01:35:54.214Z,75.7
2017-05-23T01:36:36.018Z,75.7
2017-05-23T01:37:17.046Z,75.7
2017-05-23T01:37:58.231Z,75.6
2017-05-23T01:38:42.022Z,75.42
2017-05-23T01:39:22.497Z,76.18
2017-05-23T01:40:02.909Z,76.08
2017-05-23T01:40:43.281Z,75.7
2017-05-23T01:41:23.709Z,76.37
2017-05-23T01:42:05.506Z,76.18
2017-05-23T01:42:46.034Z,76.08
2017-05-23T01:43:26.493Z,76.37
2017-05-23T01:44:07.863Z,76.08
2017-05-23T01:44:48.317Z,76.18
2017-05-23T01:45:28.748Z,76.27
2017-05-23T01:47:46.714Z,76.27
2017-05-23T01:48:27.125Z,76.37
2017-05-23T01:49:07.543Z,75.98
2017-05-23T01:49:47.992Z,76.27
2017-05-23T01:50:28.384Z,76.27
2017-05-23T01:51:08.764Z,75.98
2017-05-23T01:51:49.267Z,76.46
2017-05-23T01:52:29.666Z,76.56
2017-05-23T01:53:10.081Z,76.27
2017-05-23T01:53:50.516Z,76.37
2017-05-23T01:54:30.908Z,75.7
2017-05-23T01:55:11.332Z,76.18
2017-05-23T01:55:51.744Z,76.08
2017-05-23T01:56:32.128Z,76.37
2017-05-23T01:57:12.562Z,75.51
2017-05-23T01:57:52.937Z,75.79
2017-05-23T01:58:33.358Z,75.79
2017-05-23T02:00:31.924Z,75.7
2017-05-23T02:01:12.355Z,76.4
2017-05-23T02:01:52.753Z,76.4
2017-05-23T02:02:33.182Z,75.74
2017-05-23T02:03:13.618Z,75.45
2017-05-23T02:03:54.087Z,75.74
2017-05-23T02:04:34.493Z,75.64
2017-05-23T02:05:14.903Z,75.64
2017-05-23T02:05:55.335Z,75.45
2017-05-23T02:06:36.517Z,75.83
2017-05-23T02:07:17.684Z,76.12
2017-05-23T02:07:58.038Z,76.03
2017-05-23T02:08:38.448Z,76.4
2017-05-23T02:09:19.656Z,75.74
2017-05-23T02:10:00.094Z,75.54
2017-05-23T02:10:40.990Z,76.03
2017-05-23T02:11:22.013Z,76.5
2017-05-23T02:12:02.435Z,75.64
2017-05-23T02:12:42.866Z,75.64
2017-05-23T02:13:23.864Z,76.21
2017-05-23T02:14:05.281Z,76.21
2017-05-23T02:14:46.646Z,76.12
2017-05-23T02:15:28.753Z,76.21
2017-05-23T02:16:09.138Z,75.74
2017-05-23T02:16:50.148Z,75.83
2017-05-23T02:17:30.564Z,76.03
2017-05-23T02:18:10.996Z,76.5
2017-05-23T02:18:51.355Z,76.21
2017-05-23T02:19:31.780Z,76.31
2017-05-23T02:20:12.216Z,76.12
2017-05-23T02:20:52.661Z,76.31
2017-05-23T02:21:33.034Z,76.5
2017-05-23T02:23:30.979Z,76.12
2017-05-23T02:24:11.393Z,76.31
2017-05-23T02:24:51.797Z,76.21
2017-05-23T02:25:32.204Z,76.6
2017-05-23T02:26:12.628Z,76.4
2017-05-23T02:26:53.019Z,76.69
2017-05-23T02:27:33.431Z,76.79
2017-05-23T02:28:14.630Z,76.79
2017-05-23T02:28:55.052Z,76.88
2017-05-23T02:29:35.693Z,76.69
2017-05-23T02:30:16.086Z,76.79
2017-05-23T02:30:56.512Z,77.26
2017-05-23T02:32:54.363Z,77.17
2017-05-23T02:33:34.774Z,77.55
2017-05-23T02:34:15.170Z,77.51
2017-05-23T02:34:55.641Z,77.42
2017-05-23T02:35:36.088Z,77.65
2017-05-23T02:36:16.480Z,77.61
2017-05-23T02:36:56.918Z,77.65
2017-05-23T02:37:37.303Z,77.45
2017-05-23T02:38:17.718Z,77.55
2017-05-23T02:38:58.131Z,77.55
2017-05-23T02:39:38.611Z,77.55
2017-05-23T02:40:18.926Z,77.36
2017-05-23T02:40:59.335Z,77.17
2017-05-23T02:41:39.762Z,77.55
2017-05-23T02:42:20.175Z,77.55
2017-05-23T02:43:00.597Z,77.65
2017-05-23T02:43:41.028Z,77.45
2017-05-23T02:44:21.441Z,77.45
2017-05-23T02:45:01.904Z,77.08
2017-05-23T02:45:42.275Z,77.08
2017-05-23T02:46:22.700Z,77.08
2017-05-23T02:47:03.107Z,77.26
2017-05-23T02:47:43.498Z,77.36
2017-05-23T02:48:23.895Z,77.08
2017-05-23T02:49:04.350Z,76.98
2017-05-23T02:49:44.789Z,77.36
2017-05-23T02:50:25.186Z,77.26
2017-05-23T02:51:05.640Z,77.17
2017-05-23T02:51:46.001Z,77.17
2017-05-23T02:52:26.398Z,77.36
2017-05-23T02:53:06.797Z,77.65
2017-05-23T02:53:47.231Z,77.55
2017-05-23T02:54:27.673Z,77.84
2017-05-23T02:55:08.082Z,77.55
2017-05-23T02:55:48.500Z,77.51
2017-05-23T02:56:28.893Z,77.42
2017-05-23T02:57:09.337Z,77.8
2017-05-23T02:57:49.740Z,78.18
2017-05-23T02:58:30.195Z,78.18
2017-05-23T02:59:10.647Z,77.99
2017-05-23T02:59:51.053Z,77.7
2017-05-23T03:00:31.460Z,78.28
2017-05-23T03:01:11.929Z,78.37
2017-05-23T03:01:52.340Z,78.28
2017-05-23T03:02:32.799Z,78.18
2017-05-23T03:03:13.228Z,78.28
2017-05-23T03:03:53.679Z,78.18
2017-05-23T03:04:34.078Z,78.18
2017-05-23T03:05:14.471Z,78.28
2017-05-23T03:05:54.900Z,78.37
2017-05-23T03:06:35.309Z,77.99
2017-05-23T03:07:16.307Z,77.99
2017-05-23T03:07:56.733Z,78.75
2017-05-23T03:10:10.175Z,78.37
2017-05-23T03:10:50.586Z,78.28
2017-05-23T03:11:30.998Z,78.56
2017-05-23T03:12:11.454Z,78.47
2017-05-23T03:12:51.909Z,79.04
2017-05-23T03:13:32.349Z,78.56
2017-05-23T03:14:12.754Z,78.56
2017-05-23T03:14:53.169Z,78.94
2017-05-23T03:15:33.570Z,78.47
2017-05-23T03:17:51.596Z,79.04
2017-05-23T03:18:31.994Z,79.04
2017-05-23T03:19:12.413Z,78.94
2017-05-23T03:19:52.920Z,79.04
2017-05-23T03:20:33.222Z,78.75
2017-05-23T03:21:13.664Z,78.75
2017-05-23T03:21:54.074Z,78.66
2017-05-23T03:22:34.477Z,78.56
2017-05-23T03:23:14.887Z,78.47
2017-05-23T03:23:55.325Z,79
2017-05-23T03:24:35.792Z,79
2017-05-23T03:25:16.151Z,78.85
2017-05-23T03:25:56.564Z,78.94
2017-05-23T03:26:36.985Z,79.57
2017-05-23T03:27:17.397Z,79.48
2017-05-23T03:27:57.847Z,79.48
2017-05-23T03:28:40.043Z,79.38
2017-05-23T03:29:20.466Z,79.23
2017-05-23T03:30:00.829Z,79.38
2017-05-23T03:30:41.248Z,79.38
2017-05-23T03:31:21.715Z,79.57
2017-05-23T03:32:02.108Z,79.67
2017-05-23T03:32:42.500Z,79.48
2017-05-23T03:33:23.041Z,79.61
2017-05-23T03:34:03.654Z,79.57
2017-05-23T03:34:43.926Z,79.48
2017-05-23T03:35:24.363Z,79.48
2017-05-23T03:36:04.766Z,79.48
2017-05-23T03:36:45.194Z,79.48
2017-05-23T03:37:25.649Z,79.33
2017-05-23T03:38:06.014Z,79.28
2017-05-23T03:38:46.432Z,79.38
2017-05-23T03:39:26.927Z,79.28
2017-05-23T03:40:07.329Z,79.33
2017-05-23T03:40:47.740Z,79.67
2017-05-23T03:41:28.133Z,79.8
2017-05-23T03:42:08.648Z,79.48
2017-05-23T03:42:49.030Z,79.61
2017-05-23T03:43:29.427Z,79.77
2017-05-23T03:44:10.646Z,79.67
2017-05-23T03:44:56.529Z,79.57
2017-05-23T03:45:37.882Z,79.71
2017-05-23T03:46:18.836Z,79.86
2017-05-23T03:47:00.412Z,79.52
2017-05-23T03:47:42.075Z,79.52
2017-05-23T03:48:25.257Z,79.33
2017-05-23T03:49:05.645Z,79.28
2017-05-23T03:49:46.042Z,79.33
2017-05-23T03:50:26.502Z,79.38
2017-05-23T03:51:07.933Z,79.38
2017-05-23T03:51:48.334Z,79.52
2017-05-23T03:52:28.734Z,79.8
2017-05-23T03:53:09.126Z,79.8
2017-05-23T03:53:49.595Z,79.99
2017-05-23T03:54:30.574Z,79.71
2017-05-23T03:56:48.449Z,79.61
2017-05-23T03:57:28.883Z,79.9
2017-05-23T03:58:09.324Z,79.77
2017-05-23T03:58:49.780Z,79.8
2017-05-23T04:00:37.306Z,79.99
2017-05-23T04:01:17.710Z,79.9
2017-05-23T04:01:59.093Z,79.99
2017-05-23T04:02:39.505Z,79.8
2017-05-23T04:03:19.927Z,79.8
2017-05-23T04:04:00.390Z,79.99
2017-05-23T04:04:40.769Z,79.99
2017-05-23T04:05:22.033Z,79.8
2017-05-23T04:06:02.423Z,79.61
2017-05-23T04:06:42.826Z,79.71
2017-05-23T04:07:23.276Z,79.99
2017-05-23T04:08:03.767Z,79.71
2017-05-23T04:08:44.181Z,79.9
2017-05-23T04:09:25.187Z,79.9
2017-05-23T04:10:05.550Z,79.8
2017-05-23T04:10:45.975Z,79.36
2017-05-23T04:11:26.420Z,79.85
2017-05-23T04:12:07.495Z,79.75
2017-05-23T04:12:47.932Z,79.46
2017-05-23T04:13:28.402Z,79.36
2017-05-23T04:14:08.852Z,79.36
2017-05-23T04:14:49.267Z,79.46
2017-05-23T04:15:31.078Z,79.94
2017-05-23T04:16:11.490Z,79.08
2017-05-23T04:16:51.953Z,79.65
2017-05-23T04:17:32.355Z,79.56
2017-05-23T04:18:12.797Z,79.65
2017-05-23T04:18:53.162Z,79.94
2017-05-23T04:19:33.585Z,79.75
2017-05-23T04:20:14.035Z,79.85
2017-05-23T04:20:54.452Z,80.13
2017-05-23T04:21:34.842Z,79.85
2017-05-23T04:22:15.267Z,79.27
2017-05-23T04:22:55.652Z,79.85
2017-05-23T04:23:36.105Z,79.46
2017-05-23T04:24:16.484Z,79.85
2017-05-23T04:24:56.931Z,79.36
2017-05-23T04:25:37.308Z,79.65
2017-05-23T04:26:17.749Z,79.56
2017-05-23T04:26:58.140Z,79.75
2017-05-23T04:27:38.545Z,79.85
2017-05-23T04:28:18.929Z,79.56
2017-05-23T04:28:59.315Z,79.46
2017-05-23T04:29:39.717Z,79.65
2017-05-23T04:30:20.160Z,79.46
2017-05-23T04:31:00.577Z,79.46
2017-05-23T04:31:40.985Z,79.85
2017-05-23T04:32:21.386Z,79.94
2017-05-23T04:33:01.794Z,79.46
2017-05-23T04:33:42.206Z,79.94
2017-05-23T04:34:22.642Z,79.94
2017-05-23T04:35:03.042Z,80.04
2017-05-23T04:35:43.479Z,80.27
2017-05-23T04:36:23.886Z,80.27
2017-05-23T04:37:04.338Z,79.98
2017-05-23T04:37:44.748Z,79.5
2017-05-23T04:38:25.149Z,80.17
2017-05-23T04:39:05.601Z,79.6
2017-05-23T04:39:46.002Z,79.98
2017-05-23T04:40:26.414Z,80.17
2017-05-23T04:41:06.819Z,80.07
2017-05-23T04:41:47.246Z,80.27
2017-05-23T04:42:27.666Z,79.79
2017-05-23T04:43:08.062Z,79.98
2017-05-23T04:43:48.680Z,79.79
2017-05-23T04:44:28.959Z,80.27
2017-05-23T04:45:09.369Z,80.17
2017-05-23T04:45:49.759Z,80.17
2017-05-23T04:46:30.196Z,79.98
2017-05-23T04:47:10.581Z,79.6
2017-05-23T04:47:50.989Z,79.98
2017-05-23T04:48:31.393Z,79.41
2017-05-23T04:49:11.780Z,79.5
2017-05-23T04:49:52.186Z,80.07
2017-05-23T04:50:32.605Z,80.02
2017-05-23T04:51:13.036Z,79.93
2017-05-23T04:51:53.447Z,79.73
2017-05-23T04:52:33.841Z,79.44
2017-05-23T04:53:14.240Z,79.83
2017-05-23T04:53:54.650Z,79.83
2017-05-23T04:54:35.864Z,79.93
2017-05-23T04:55:16.324Z,79.93
2017-05-23T04:55:56.706Z,79.64
2017-05-23T04:56:37.087Z,79.44
2017-05-23T04:57:17.551Z,79.44
2017-05-23T04:57:57.947Z,79.54
2017-05-23T04:58:38.363Z,79.44
2017-05-23T04:59:18.813Z,79.25
2017-05-23T04:59:59.224Z,79.64
2017-05-23T05:00:39.679Z,79.44
2017-05-23T05:01:20.067Z,79.54
2017-05-23T05:02:00.565Z,79.64
2017-05-23T05:02:41.018Z,79.73
2017-05-23T05:03:21.410Z,79.64
2017-05-23T05:04:01.814Z,79.77
2017-05-23T05:04:42.222Z,79.87
2017-05-23T05:05:22.616Z,79.2
2017-05-23T05:06:03.045Z,79
2017-05-23T05:06:43.507Z,79.29
2017-05-23T05:07:23.937Z,79.39
2017-05-23T05:08:04.385Z,79.2
2017-05-23T05:08:44.815Z,79.29
2017-05-23T05:09:25.278Z,79.49
2017-05-23T05:10:05.675Z,79.29
2017-05-23T05:10:46.152Z,79
2017-05-23T05:11:26.533Z,79.1
2017-05-23T05:12:06.998Z,79.1
2017-05-23T05:12:47.410Z,79.2
2017-05-23T05:13:27.840Z,79.1
2017-05-23T05:14:08.264Z,78.72
2017-05-23T05:14:48.648Z,78.81
2017-05-23T05:15:29.071Z,79.39
2017-05-23T05:16:09.468Z,79.1
2017-05-23T05:16:49.949Z,78.57
2017-05-23T05:17:30.431Z,78.66
2017-05-23T05:18:10.837Z,78.57
2017-05-23T05:18:51.313Z,78.47
2017-05-23T05:19:31.770Z,78.57
2017-05-23T05:20:12.123Z,78.57
2017-05-23T05:20:52.564Z,78.76
2017-05-23T05:21:32.937Z,78.95
2017-05-23T05:22:13.449Z,78.38
2017-05-23T05:22:53.849Z,78.38
2017-05-23T05:23:34.242Z,78.42
2017-05-23T05:24:14.643Z,78.42
2017-05-23T05:24:55.160Z,78.13
2017-05-23T05:25:36.476Z,78.32
2017-05-23T05:26:17.414Z,78.51
2017-05-23T05:26:57.778Z,78.13
2017-05-23T05:27:38.838Z,78.51
2017-05-23T05:28:19.690Z,77.84
2017-05-23T05:29:00.441Z,77.75
2017-05-23T05:29:41.829Z,77.78
2017-05-23T05:30:24.055Z,77.97
2017-05-23T05:32:12.159Z,78.07
2017-05-23T05:32:57.054Z,77.78
2017-05-23T05:33:37.662Z,77.78
2017-05-23T05:34:20.637Z,77.69
2017-05-23T05:35:00.074Z,77.53
2017-05-23T05:35:42.443Z,77.63
2017-05-23T05:37:41.566Z,76.86
2017-05-23T05:38:23.459Z,76.96
2017-05-23T05:39:04.132Z,76.67
2017-05-23T05:39:48.287Z,76.57
2017-05-23T05:40:30.544Z,76.86
2017-05-23T05:41:11.343Z,76.57
2017-05-23T05:41:51.813Z,76.29
2017-05-23T05:42:32.204Z,75.75
2017-05-23T05:43:12.608Z,75.95
2017-05-23T05:43:53.008Z,75.95
2017-05-23T05:44:33.430Z,75.85
2017-05-23T05:45:13.834Z,76.04
2017-05-23T05:45:54.219Z,76.14
2017-05-23T05:46:34.659Z,76.1
2017-05-23T05:47:15.051Z,75.81
2017-05-23T05:47:55.521Z,76.1
2017-05-23T05:48:35.979Z,75.9
2017-05-23T05:49:16.381Z,76
2017-05-23T05:49:56.776Z,75.9
2017-05-23T05:50:37.192Z,76.67
2017-05-23T05:51:17.591Z,76.48
2017-05-23T05:51:58.065Z,76.67
2017-05-23T05:52:38.456Z,76.39
2017-05-23T05:53:18.892Z,76.39
2017-05-23T05:53:59.291Z,76.67
2017-05-23T05:54:39.741Z,75.81
2017-05-23T05:55:20.163Z,76
2017-05-23T05:56:00.599Z,76.1
2017-05-23T05:56:41.031Z,75.9
2017-05-23T05:57:21.452Z,76.1
2017-05-23T05:58:01.871Z,75.71
2017-05-23T05:58:42.294Z,75.23
2017-05-23T05:59:22.710Z,75.23
2017-05-23T06:00:03.145Z,75.23
2017-05-23T06:00:43.540Z,75.52
2017-05-23T06:01:23.971Z,75.46
2017-05-23T06:02:04.442Z,75.75
2017-05-23T06:02:44.849Z,75.85
2017-05-23T06:03:25.293Z,75.27
2017-05-23T06:04:05.715Z,75.27
2017-05-23T06:04:46.171Z,75.4
2017-05-23T06:05:26.583Z,75.12
2017-05-23T06:06:07.056Z,74.93
2017-05-23T06:06:47.490Z,74.73
2017-05-23T06:07:27.914Z,74.73
2017-05-23T06:09:45.853Z,73.72
2017-05-23T06:10:26.293Z,73.81
2017-05-23T06:11:06.740Z,73.52
2017-05-23T06:11:48.974Z,73.14
2017-05-23T06:12:29.464Z,73.04
2017-05-23T06:13:09.804Z,72.89
2017-05-23T06:13:50.249Z,72.5
2017-05-23T06:14:30.815Z,72.5
2017-05-23T06:15:11.109Z,72.31
2017-05-23T06:15:51.517Z,72.54
2017-05-23T06:16:31.956Z,72.54
2017-05-23T06:17:12.392Z,71.96
2017-05-23T06:17:52.792Z,71.96
2017-05-23T06:18:33.263Z,71.58
2017-05-23T06:19:13.680Z,71.19
2017-05-23T06:19:54.058Z,71.19
2017-05-23T06:20:34.484Z,71.29
2017-05-23T06:21:14.976Z,71.33
2017-05-23T06:21:55.352Z,71.14
2017-05-23T06:22:35.786Z,70.65
2017-05-23T06:23:16.181Z,70.56
2017-05-23T06:23:56.610Z,70.56
2017-05-23T06:24:37.039Z,70.5
2017-05-23T06:25:17.426Z,69.92
2017-05-23T06:25:57.878Z,69.73
2017-05-23T06:26:38.318Z,70.21
2017-05-23T06:27:18.730Z,69.57
2017-05-23T06:27:59.182Z,68.8
2017-05-23T06:28:39.589Z,68.99
2017-05-23T06:29:20.036Z,68.7
2017-05-23T06:30:00.445Z,68.22
2017-05-23T06:30:40.894Z,68.44
2017-05-23T06:31:21.300Z,67.83
2017-05-23T06:32:01.722Z,68.16
2017-05-23T06:32:42.141Z,67.77
2017-05-23T06:33:22.546Z,67.49
2017-05-23T06:34:02.968Z,67.71
2017-05-23T06:34:43.379Z,67.39
2017-05-23T06:35:23.877Z,66.94
2017-05-23T06:36:04.990Z,66.75
2017-05-23T06:36:45.449Z,67.23
2017-05-23T06:37:25.902Z,66.55
2017-05-23T06:38:06.289Z,66.27
2017-05-23T06:38:46.708Z,65.91
2017-05-23T06:39:27.139Z,65.72
2017-05-23T06:41:24.949Z,65.43
2017-05-23T06:42:05.435Z,65.24
2017-05-23T06:42:45.854Z,65.33
2017-05-23T06:43:26.291Z,65.17
2017-05-23T06:44:06.730Z,64.59
2017-05-23T06:44:47.152Z,64.59
2017-05-23T06:45:29.490Z,64.21
2017-05-23T06:46:10.204Z,64.11
2017-05-23T06:48:27.956Z,63.85
2017-05-23T06:49:08.400Z,63.28
2017-05-23T06:49:48.847Z,63.4
2017-05-23T06:50:29.312Z,63.47
2017-05-23T06:51:09.730Z,63.89
2017-05-23T06:51:50.165Z,63.7
2017-05-23T06:52:30.591Z,63.31
2017-05-23T06:53:11.007Z,63.12
2017-05-23T06:53:51.462Z,63.05
2017-05-23T06:54:31.868Z,62.76
2017-05-23T06:55:12.326Z,62.76
2017-05-23T06:55:52.744Z,62.28
2017-05-23T06:56:33.172Z,62.18
2017-05-23T06:57:13.568Z,62.02
2017-05-23T06:57:53.974Z,62.12
2017-05-23T06:58:34.396Z,61.73
2017-05-23T06:59:14.800Z,61.92
2017-05-23T06:59:58.142Z,61.63
2017-05-23T07:00:38.576Z,61.44
2017-05-23T07:01:18.979Z,61.05
2017-05-23T07:03:31.751Z,60.41
2017-05-23T07:04:12.809Z,60.21
2017-05-23T07:04:53.228Z,60.31
2017-05-23T07:05:33.916Z,59.92
2017-05-23T07:06:14.361Z,59.53
2017-05-23T07:06:54.779Z,60.05
2017-05-23T07:07:35.339Z,60.34
2017-05-23T07:08:15.686Z,59.95
2017-05-23T07:08:57.015Z,59.86
2017-05-23T07:09:37.464Z,59.76
2017-05-23T07:10:17.876Z,60.05
2017-05-23T07:10:58.321Z,59.59
2017-05-23T07:11:38.749Z,59.79
2017-05-23T07:12:19.154Z,59.31
2017-05-23T07:12:59.579Z,59.21
2017-05-23T07:13:40.035Z,59.23
2017-05-23T07:14:20.437Z,59.33
2017-05-23T07:15:00.988Z,59.43
2017-05-23T07:15:41.303Z,59.94
2017-05-23T07:16:21.755Z,60.43
2017-05-23T07:17:02.191Z,60
2017-05-23T07:17:42.594Z,59.94
2017-05-23T07:18:23.591Z,58.73
2017-05-23T07:19:04.037Z,57.69
2017-05-23T07:19:44.469Z,56.68
2017-05-23T07:20:24.895Z,55.27
2017-05-23T07:21:05.318Z,53.6
2017-05-23T07:21:45.783Z,52
2017-05-23T07:22:26.832Z,51.07
2017-05-23T07:23:07.293Z,49.26
2017-05-23T07:23:47.713Z,48.53
2017-05-23T07:24:28.128Z,47.4
2017-05-23T07:25:08.577Z,45.98
2017-05-23T07:25:49.024Z,45.34
2017-05-23T07:26:29.524Z,43.98
2017-05-23T07:28:17.382Z,41.41
2017-05-23T07:28:57.823Z,40.55
2017-05-23T07:29:38.277Z,39.48
2017-05-23T07:30:18.717Z,38.83
2017-05-23T07:30:59.128Z,38.06
2017-05-23T07:31:39.561Z,37.19
2017-05-23T07:32:20.087Z,36.32
2017-05-23T07:33:00.543Z,35.55
2017-05-23T07:33:40.944Z,35.05
2017-05-23T07:34:21.394Z,34.88
2017-05-23T07:35:01.849Z,34.5
2017-05-23T07:35:42.293Z,34.2
2017-05-23T07:36:22.731Z,33.72
2017-05-23T07:37:03.198Z,33.82
2017-05-23T07:37:43.559Z,32.83
2017-05-23T07:39:56.564Z,31.38
2017-05-23T07:40:37.032Z,31.08
2017-05-23T07:41:17.517Z,30.9
2017-05-23T07:41:57.945Z,30.7
2017-05-23T07:44:16.751Z,29.44
2017-05-23T07:44:57.229Z,28.66
2017-05-23T07:45:37.679Z,27.47
2017-05-23T07:46:18.127Z,26.38
2017-05-23T07:46:58.610Z,25.49
2017-05-23T07:47:39.036Z,25.38
2017-05-23T07:48:19.493Z,25.48
2017-05-23T07:48:59.921Z,25.96
2017-05-23T07:49:40.361Z,25.86
2017-05-23T07:50:20.801Z,25.86
2017-05-23T07:51:01.240Z,25.38
2017-05-23T07:51:42.609Z,24.98
2017-05-23T07:52:23.089Z,25.09
2017-05-23T07:53:03.538Z,24.51
2017-05-23T07:53:43.981Z,24.31
2017-05-23T07:54:24.433Z,24.02
2017-05-23T07:55:04.837Z,23.74
2017-05-23T07:56:52.475Z,22.36
2017-05-23T07:57:32.934Z,22.16
2017-05-23T07:58:13.403Z,22.07
2017-05-23T07:58:53.839Z,22.07
2017-05-23T07:59:34.307Z,22.26
2017-05-23T08:00:14.743Z,22.45
2017-05-23T08:00:55.172Z,22.26
2017-05-23T08:01:35.599Z,22.16
2017-05-23T08:02:16.016Z,22.06
2017-05-23T08:02:56.458Z,22.26
2017-05-23T08:03:36.883Z,21.57
2017-05-23T08:04:17.329Z,21.08
2017-05-23T08:04:57.743Z,20.87
2017-05-23T08:05:38.176Z,20.89
2017-05-23T08:06:18.622Z,20.19
2017-05-23T08:06:59.581Z,20.2
2017-05-23T08:07:40.014Z,19.71
2017-05-23T08:08:20.468Z,19.41
2017-05-23T08:09:00.881Z,19.12
2017-05-23T08:09:41.316Z,18.73
2017-05-23T08:10:21.798Z,18.63
2017-05-23T08:11:02.276Z,18.73
2017-05-23T08:11:42.730Z,18.34
2017-05-23T08:12:23.202Z,18.34
2017-05-23T08:13:03.705Z,18.25
2017-05-23T08:13:44.130Z,17.46
2017-05-23T08:14:24.546Z,17.56
2017-05-23T08:15:04.970Z,17.66
2017-05-23T08:16:52.721Z,17.26
2017-05-23T08:17:33.183Z,16.77
2017-05-23T08:18:13.633Z,16.77
2017-05-23T08:18:54.088Z,16.56
2017-05-23T08:19:34.541Z,16.86
2017-05-23T08:20:14.987Z,16.57
2017-05-23T08:20:55.413Z,16.56
2017-05-23T08:21:35.846Z,16.37
2017-05-23T08:22:16.284Z,16.58
2017-05-23T08:22:56.698Z,16.68
2017-05-23T08:23:37.157Z,16.28
2017-05-23T08:24:17.538Z,16.39
2017-05-23T08:24:57.973Z,15.89
2017-05-23T08:25:38.377Z,15.69
2017-05-23T08:26:18.819Z,15.89
2017-05-23T08:26:59.250Z,15.5
2017-05-23T08:27:39.700Z,15.6
2017-05-23T08:28:20.153Z,15.7
2017-05-23T08:29:00.613Z,15.39
2017-05-23T08:29:41.053Z,15.39
2017-05-23T08:30:21.473Z,15.3
2017-05-23T08:31:01.895Z,15.39
2017-05-23T08:31:42.337Z,15.78
2017-05-23T08:32:22.774Z,15.77
2017-05-23T08:33:03.206Z,15.77
2017-05-23T08:35:21.390Z,16.36
2017-05-23T08:36:01.863Z,16.65
2017-05-23T08:36:42.307Z,16.74
2017-05-23T08:37:22.772Z,17.12
2017-05-23T08:38:03.223Z,17.3
2017-05-23T08:38:43.685Z,17.4
2017-05-23T08:39:24.090Z,17.79
2017-05-23T08:40:04.541Z,17.79
2017-05-23T08:42:22.583Z,16.71
2017-05-23T08:43:03.041Z,16.02
2017-05-23T08:43:43.516Z,15.63
2017-05-23T08:45:36.403Z,15.44
2017-05-23T08:46:16.911Z,15.05
2017-05-23T08:46:57.372Z,15.35
2017-05-23T08:47:37.802Z,15.35
2017-05-23T08:48:18.234Z,15.35
2017-05-23T08:48:58.644Z,15.26
2017-05-23T08:49:39.061Z,15.26
2017-05-23T08:50:19.545Z,14.97
2017-05-23T08:50:59.953Z,14.78
2017-05-23T08:51:40.351Z,14.39
2017-05-23T08:52:20.809Z,14.39
2017-05-23T08:53:01.294Z,14.59
2017-05-23T08:53:41.724Z,14.39
2017-05-23T08:54:22.161Z,14.68
2017-05-23T08:55:02.584Z,14.19
2017-05-23T08:55:43.010Z,14.5
2017-05-23T08:57:31.088Z,14.4
2017-05-23T08:58:11.534Z,14.29
2017-05-23T08:58:52.002Z,14.29
2017-05-23T08:59:32.461Z,14.4
2017-05-23T09:00:13.047Z,14
2017-05-23T09:00:53.494Z,13.7
2017-05-23T09:01:33.943Z,13.5
2017-05-23T09:02:14.368Z,13.71
2017-05-23T09:02:54.857Z,13.71
2017-05-23T09:03:36.240Z,13.32
2017-05-23T09:04:16.671Z,13.12
2017-05-23T09:04:57.127Z,13.02
2017-05-23T09:05:37.583Z,12.63
2017-05-23T09:06:18.015Z,12.54
2017-05-23T09:06:58.597Z,12.24
2017-05-23T09:07:39.043Z,12.04
2017-05-23T09:08:19.482Z,12.14
2017-05-23T09:08:59.897Z,12.04
2017-05-23T09:09:40.303Z,12.13
2017-05-23T09:10:20.736Z,11.83
2017-05-23T09:11:01.168Z,11.83
2017-05-23T09:11:41.599Z,11.63
2017-05-23T09:12:22.034Z,11.63
2017-05-23T09:13:02.434Z,11.24
2017-05-23T09:15:21.580Z,12.21
2017-05-23T09:16:02.023Z,12.4
2017-05-23T09:16:42.477Z,12.49
2017-05-23T09:17:22.917Z,12.39
2017-05-23T09:18:03.343Z,12.6
2017-05-23T09:18:43.978Z,12.6
2017-05-23T09:19:24.375Z,12.49
2017-05-23T09:20:04.793Z,12.5
2017-05-23T09:20:45.204Z,12.3
2017-05-23T09:21:25.641Z,12.4
2017-05-23T09:23:19.267Z,12.3
2017-05-23T09:23:59.691Z,12.3